Terminal Aerodrome Forecast
Issued by NWS Tiyan, Guam

Home | Current Version | Previous Version | Text Only | Print | Product List | Glossary On
Versions: 1 2 3 4 5 6 7 8 9 10 11 12 13 14 15 16 17 18 19 20 21 22 23 24 25 26 27 28 29 30
000
FTPQ31 PGUM 021720
TAFGUM
TAF
PGUM 021720Z 0218/0324 10011KT P6SM VCSH SCT025 SCT050 SCT120
      TEMPO 0218/0221 3SM SHRA SCT014 BKN025
     FM022300 07014G24KT P6SM VCSH SCT020 BKN060 OVC110=

USA.gov is the U.S. government's official web portal to all federal, state and local government web resources and services.